PWSweather.com
Personal Weather Stations
Station Observations
ESTFIQ
Santa Fe, Santa FeAR 3000

Santa FeSanta FeAR 3000

Lat: -31.637, Lon: -60.708

Elevation: 69

Station Type: WH-1081

http://galileo4.unl.edu.ar/estacion

Latest ConditionsUpdated 7:00:01 PM GMT-03:57 Sunday, Dec 9, 2018
Currently Today's Max Today's Min Today's Average
Temperature 82.6°F28.1°C 89.2°F31.8°C 70.5°F21.4°C 77.4°F25.2°C
Dew Point 60.4°F15.8°C 62.7°F17.1°C 52.3°F11.3°C 55.9°F13.3°C
Winds 2.2 mph N3.5 kmh N 15.9 mph -25.6 kmh - - 7.3 mph 11.7 kmh
Wind Gusts 7.6 mph12.2 kmh 25.1 mph40.4 kmh - -
Humidity 47% 60% 29% 49%
Pressure 29.74 in1007.1 mb 29.85 in1010.8 mb 29.71 in1006.1 mb -
Hour Temp Dew Point Humidity Winds Wind Gusts Pressure Precip Precip Rate Daily Precip Total
07:00 PM 82.6°F28.1°C 60.4°F15.8°C 47% 2.2 mph N3.5 kmh N 7.6 mph12.2 kmh 29.74 in1007.1 mb 0.00 in0.0 mm 0.00 in0.0 mm 0.00 in0.0 mm
06:55 PM 82.8°F28.2°C 60.5°F15.8°C 47% 3.1 mph N5.0 kmh N 7.6 mph12.2 kmh 29.73 in1006.8 mb 0.00 in0.0 mm 0.00 in0.0 mm 0.00 in0.0 mm
06:50 PM 82.9°F28.3°C 60.7°F15.9°C 47% 3.8 mph N6.1 kmh N 7.6 mph12.2 kmh 29.73 in1006.8 mb 0.00 in0.0 mm 0.00 in0.0 mm 0.00 in0.0 mm
06:45 PM 82.9°F28.3°C 60.7°F15.9°C 47% 3.1 mph NNE5.0 kmh NNE 9.2 mph14.8 kmh 29.73 in1006.8 mb 0.00 in0.0 mm 0.00 in0.0 mm 0.00 in0.0 mm
06:40 PM 82.9°F28.3°C 60.7°F15.9°C 47% 3.8 mph NNE6.1 kmh NNE 9.2 mph14.8 kmh 29.73 in1006.8 mb 0.00 in0.0 mm 0.00 in0.0 mm 0.00 in0.0 mm
06:35 PM 83.1°F28.4°C 61.4°F16.3°C 48% 3.1 mph NNE5.0 kmh NNE 9.2 mph14.8 kmh 29.72 in1006.4 mb 0.00 in0.0 mm 0.00 in0.0 mm 0.00 in0.0 mm
06:30 PM 83.1°F28.4°C 61.4°F16.3°C 48% 4.5 mph NNE7.2 kmh NNE 9.8 mph15.8 kmh 29.72 in1006.4 mb 0.00 in0.0 mm 0.00 in0.0 mm 0.00 in0.0 mm
06:25 PM 83.1°F28.4°C 61.4°F16.3°C 48% 4.5 mph N7.2 kmh N 9.8 mph15.8 kmh 29.72 in1006.4 mb 0.00 in0.0 mm 0.00 in0.0 mm 0.00 in0.0 mm
06:20 PM 83.5°F28.6°C 61.8°F16.6°C 48% 5.4 mph N8.7 kmh N 12.1 mph19.5 kmh 29.72 in1006.4 mb 0.00 in0.0 mm 0.00 in0.0 mm 0.00 in0.0 mm
06:15 PM 83.5°F28.6°C 61.8°F16.6°C 48% 4.5 mph NNE7.2 kmh NNE 12.1 mph19.5 kmh 29.72 in1006.4 mb 0.00 in0.0 mm 0.00 in0.0 mm 0.00 in0.0 mm
06:10 PM 83.5°F28.6°C 61.8°F16.6°C 48% 5.4 mph N8.7 kmh N 18.3 mph29.5 kmh 29.72 in1006.4 mb 0.00 in0.0 mm 0.00 in0.0 mm 0.00 in0.0 mm
06:05 PM 83.7°F28.7°C 61.3°F16.3°C 47% 7.6 mph N12.2 kmh N 18.3 mph29.5 kmh 29.72 in1006.4 mb 0.00 in0.0 mm 0.00 in0.0 mm 0.00 in0.0 mm
06:00 PM 84.0°F28.9°C 60.4°F15.8°C 45% 7.6 mph N12.2 kmh N 18.3 mph29.5 kmh 29.71 in1006.1 mb 0.00 in0.0 mm 0.00 in0.0 mm 0.00 in0.0 mm
05:55 PM 84.2°F29.0°C 60.0°F15.6°C 44% 6.9 mph N11.1 kmh N 11.4 mph18.3 kmh 29.73 in1006.8 mb 0.00 in0.0 mm 0.00 in0.0 mm 0.00 in0.0 mm
05:50 PM 84.4°F29.1°C 60.1°F15.6°C 44% 6.9 mph NNE11.1 kmh NNE 11.4 mph18.3 kmh 29.72 in1006.4 mb 0.00 in0.0 mm 0.00 in0.0 mm 0.00 in0.0 mm
05:45 PM 84.4°F29.1°C 60.1°F15.6°C 44% 5.4 mph NNE8.7 kmh NNE 12.1 mph19.5 kmh 29.72 in1006.4 mb 0.00 in0.0 mm 0.00 in0.0 mm 0.00 in0.0 mm
05:40 PM 84.4°F29.1°C 60.1°F15.6°C 44% 5.4 mph NNE8.7 kmh NNE 12.1 mph19.5 kmh 29.72 in1006.4 mb 0.00 in0.0 mm 0.00 in0.0 mm 0.00 in0.0 mm
05:35 PM 84.4°F29.1°C 60.1°F15.6°C 44% 6.0 mph N9.7 kmh N 12.1 mph19.5 kmh 29.72 in1006.4 mb 0.00 in0.0 mm 0.00 in0.0 mm 0.00 in0.0 mm
05:30 PM 84.4°F29.1°C 59.5°F15.3°C 43% 6.0 mph N9.7 kmh N 13.6 mph21.9 kmh 29.73 in1006.8 mb 0.00 in0.0 mm 0.00 in0.0 mm 0.00 in0.0 mm
05:25 PM 84.4°F29.1°C 59.5°F15.3°C 43% 3.8 mph N6.1 kmh N 13.6 mph21.9 kmh 29.72 in1006.4 mb 0.00 in0.0 mm 0.00 in0.0 mm 0.00 in0.0 mm
05:20 PM 84.4°F29.1°C 59.5°F15.3°C 43% 5.4 mph N8.7 kmh N 13.0 mph20.9 kmh 29.72 in1006.4 mb 0.00 in0.0 mm 0.00 in0.0 mm 0.00 in0.0 mm
05:15 PM 85.1°F29.5°C 60.8°F16.0°C 44% 3.1 mph NNE5.0 kmh NNE 12.1 mph19.5 kmh 29.72 in1006.4 mb 0.00 in0.0 mm 0.00 in0.0 mm 0.00 in0.0 mm
05:10 PM 85.1°F29.5°C 62.0°F16.7°C 46% 3.1 mph NE5.0 kmh NE 8.3 mph13.4 kmh 29.73 in1006.8 mb 0.00 in0.0 mm 0.00 in0.0 mm 0.00 in0.0 mm
05:05 PM 85.1°F29.5°C 62.7°F17.1°C 47% 2.2 mph NE3.5 kmh NE 13.0 mph20.9 kmh 29.73 in1006.8 mb 0.00 in0.0 mm 0.00 in0.0 mm 0.00 in0.0 mm
05:00 PM 85.1°F29.5°C 61.4°F16.3°C 45% 4.5 mph ENE7.2 kmh ENE 13.0 mph20.9 kmh 29.73 in1006.8 mb 0.00 in0.0 mm 0.00 in0.0 mm 0.00 in0.0 mm
04:55 PM 85.5°F29.7°C 60.5°F15.8°C 43% 5.4 mph E8.7 kmh E 13.0 mph20.9 kmh 29.74 in1007.1 mb 0.00 in0.0 mm 0.00 in0.0 mm 0.00 in0.0 mm
04:50 PM 85.8°F29.9°C 60.8°F16.0°C 43% 6.0 mph ENE9.7 kmh ENE 13.0 mph20.9 kmh 29.73 in1006.8 mb 0.00 in0.0 mm 0.00 in0.0 mm 0.00 in0.0 mm
04:45 PM 86.2°F30.1°C 60.5°F15.8°C 42% 9.2 mph E14.8 kmh E 13.0 mph20.9 kmh 29.73 in1006.8 mb 0.00 in0.0 mm 0.00 in0.0 mm 0.00 in0.0 mm
04:40 PM 86.0°F30.0°C 60.3°F15.7°C 42% 2.2 mph E3.5 kmh E 11.4 mph18.3 kmh 29.73 in1006.8 mb 0.00 in0.0 mm 0.00 in0.0 mm 0.00 in0.0 mm
04:35 PM 86.2°F30.1°C 59.8°F15.4°C 41% 7.6 mph E12.2 kmh E 12.1 mph19.5 kmh 29.73 in1006.8 mb 0.00 in0.0 mm 0.00 in0.0 mm 0.00 in0.0 mm
04:30 PM 86.9°F30.5°C 60.4°F15.8°C 41% 7.6 mph ENE12.2 kmh ENE 12.1 mph19.5 kmh 29.73 in1006.8 mb 0.00 in0.0 mm 0.00 in0.0 mm 0.00 in0.0 mm
04:25 PM 87.4°F30.8°C 60.9°F16.1°C 41% 5.4 mph NNE8.7 kmh NNE 9.8 mph15.8 kmh 29.73 in1006.8 mb 0.00 in0.0 mm 0.00 in0.0 mm 0.00 in0.0 mm
04:20 PM 87.4°F30.8°C 60.9°F16.1°C 41% 4.5 mph N7.2 kmh N 12.1 mph19.5 kmh 29.73 in1006.8 mb 0.00 in0.0 mm 0.00 in0.0 mm 0.00 in0.0 mm
04:15 PM 88.0°F31.1°C 52.7°F11.5°C 30% 6.9 mph N11.1 kmh N 13.6 mph21.9 kmh 29.73 in1006.8 mb 0.00 in0.0 mm 0.00 in0.0 mm 0.00 in0.0 mm
04:10 PM 87.4°F30.8°C 54.0°F12.2°C 32% 5.4 mph NW8.7 kmh NW 13.6 mph21.9 kmh 29.73 in1006.8 mb 0.00 in0.0 mm 0.00 in0.0 mm 0.00 in0.0 mm
04:05 PM 87.3°F30.7°C 53.0°F11.7°C 31% 6.9 mph NNW11.1 kmh NNW 16.8 mph27.0 kmh 29.73 in1006.8 mb 0.00 in0.0 mm 0.00 in0.0 mm 0.00 in0.0 mm
04:00 PM 86.9°F30.5°C 53.5°F11.9°C 32% 7.6 mph NNW12.2 kmh NNW 16.8 mph27.0 kmh 29.73 in1006.8 mb 0.00 in0.0 mm 0.00 in0.0 mm 0.00 in0.0 mm
03:55 PM 87.3°F30.7°C 53.9°F12.2°C 32% 15.2 mph NW24.5 kmh NW 16.8 mph27.0 kmh 29.73 in1006.8 mb 0.00 in0.0 mm 0.00 in0.0 mm 0.00 in0.0 mm
03:50 PM 87.6°F30.9°C 53.3°F11.8°C 31% 9.2 mph NW14.8 kmh NW 14.5 mph23.3 kmh 29.73 in1006.8 mb 0.00 in0.0 mm 0.00 in0.0 mm 0.00 in0.0 mm
03:45 PM 88.0°F31.1°C 52.7°F11.5°C 30% 9.2 mph NNW14.8 kmh NNW 13.0 mph20.9 kmh 29.73 in1006.8 mb 0.00 in0.0 mm 0.00 in0.0 mm 0.00 in0.0 mm
03:40 PM 88.0°F31.1°C 52.7°F11.5°C 30% 7.6 mph NW12.2 kmh NW 16.8 mph27.0 kmh 29.73 in1006.8 mb 0.00 in0.0 mm 0.00 in0.0 mm 0.00 in0.0 mm
03:35 PM 88.3°F31.3°C 53.0°F11.7°C 30% 8.3 mph NW13.4 kmh NW 19.7 mph31.7 kmh 29.74 in1007.1 mb 0.00 in0.0 mm 0.00 in0.0 mm 0.00 in0.0 mm
03:30 PM 88.9°F31.6°C 53.5°F11.9°C 30% 10.7 mph NW17.2 kmh NW 19.7 mph31.7 kmh 29.75 in1007.5 mb 0.00 in0.0 mm 0.00 in0.0 mm 0.00 in0.0 mm
03:25 PM 89.2°F31.8°C 52.9°F11.6°C 29% 9.2 mph N14.8 kmh N 19.0 mph30.6 kmh 29.74 in1007.1 mb 0.00 in0.0 mm 0.00 in0.0 mm 0.00 in0.0 mm
03:20 PM 88.5°F31.4°C 53.2°F11.8°C 30% 8.3 mph N13.4 kmh N 19.0 mph30.6 kmh 29.74 in1007.1 mb 0.00 in0.0 mm 0.00 in0.0 mm 0.00 in0.0 mm
03:15 PM 89.1°F31.7°C 53.6°F12.0°C 30% 12.1 mph N19.5 kmh N 16.8 mph27.0 kmh 29.74 in1007.1 mb 0.00 in0.0 mm 0.00 in0.0 mm 0.00 in0.0 mm
03:10 PM 89.1°F31.7°C 53.6°F12.0°C 30% 4.5 mph N7.2 kmh N 15.2 mph24.5 kmh 29.74 in1007.1 mb 0.00 in0.0 mm 0.00 in0.0 mm 0.00 in0.0 mm
03:05 PM 88.0°F31.1°C 52.7°F11.5°C 30% 7.6 mph N12.2 kmh N 13.6 mph21.9 kmh 29.74 in1007.1 mb 0.00 in0.0 mm 0.00 in0.0 mm 0.00 in0.0 mm
03:00 PM 88.5°F31.4°C 53.2°F11.8°C 30% 12.1 mph N19.5 kmh N 13.6 mph21.9 kmh 29.75 in1007.5 mb 0.00 in0.0 mm 0.00 in0.0 mm 0.00 in0.0 mm
02:55 PM 88.2°F31.2°C 52.9°F11.6°C 30% 7.6 mph N12.2 kmh N 13.6 mph21.9 kmh 29.76 in1007.8 mb 0.00 in0.0 mm 0.00 in0.0 mm 0.00 in0.0 mm
02:50 PM 87.4°F30.8°C 54.0°F12.2°C 32% 9.2 mph NNW14.8 kmh NNW 13.6 mph21.9 kmh 29.76 in1007.8 mb 0.00 in0.0 mm 0.00 in0.0 mm 0.00 in0.0 mm
02:45 PM 87.4°F30.8°C 53.1°F11.7°C 31% 10.7 mph NNW17.2 kmh NNW 14.5 mph23.3 kmh 29.76 in1007.8 mb 0.00 in0.0 mm 0.00 in0.0 mm 0.00 in0.0 mm
02:40 PM 87.4°F30.8°C 54.0°F12.2°C 32% 8.3 mph NNW13.4 kmh NNW 14.5 mph23.3 kmh 29.77 in1008.1 mb 0.00 in0.0 mm 0.00 in0.0 mm 0.00 in0.0 mm
02:35 PM 86.9°F30.5°C 52.7°F11.5°C 31% 11.4 mph N18.3 kmh N 16.8 mph27.0 kmh 29.77 in1008.1 mb 0.00 in0.0 mm 0.00 in0.0 mm 0.00 in0.0 mm
02:30 PM 86.2°F30.1°C 52.9°F11.6°C 32% 7.6 mph N12.2 kmh N 16.8 mph27.0 kmh 29.77 in1008.1 mb 0.00 in0.0 mm 0.00 in0.0 mm 0.00 in0.0 mm
02:25 PM 86.0°F30.0°C 52.8°F11.6°C 32% 10.7 mph NNW17.2 kmh NNW 16.8 mph27.0 kmh 29.77 in1008.1 mb 0.00 in0.0 mm 0.00 in0.0 mm 0.00 in0.0 mm
02:20 PM 85.8°F29.9°C 53.4°F11.9°C 33% 6.9 mph NNW11.1 kmh NNW 16.8 mph27.0 kmh 29.77 in1008.1 mb 0.00 in0.0 mm 0.00 in0.0 mm 0.00 in0.0 mm
02:15 PM 85.5°F29.7°C 53.1°F11.7°C 33% 9.2 mph NNW14.8 kmh NNW 20.6 mph33.2 kmh 29.78 in1008.5 mb 0.00 in0.0 mm 0.00 in0.0 mm 0.00 in0.0 mm
02:10 PM 85.5°F29.7°C 53.9°F12.2°C 34% 9.8 mph NNW15.8 kmh NNW 22.1 mph35.6 kmh 29.78 in1008.5 mb 0.00 in0.0 mm 0.00 in0.0 mm 0.00 in0.0 mm
02:05 PM 85.8°F29.9°C 53.4°F11.9°C 33% 14.5 mph NNW23.3 kmh NNW 22.1 mph35.6 kmh 29.78 in1008.5 mb 0.00 in0.0 mm 0.00 in0.0 mm 0.00 in0.0 mm
02:00 PM 86.2°F30.1°C 52.9°F11.6°C 32% 10.7 mph N17.2 kmh N 20.6 mph33.2 kmh 29.78 in1008.5 mb 0.00 in0.0 mm 0.00 in0.0 mm 0.00 in0.0 mm
01:55 PM 85.5°F29.7°C 53.9°F12.2°C 34% 13.6 mph N21.9 kmh N 20.6 mph33.2 kmh 29.78 in1008.5 mb 0.00 in0.0 mm 0.00 in0.0 mm 0.00 in0.0 mm
01:50 PM 85.1°F29.5°C 53.6°F12.0°C 34% 11.4 mph N18.3 kmh N 21.3 mph34.3 kmh 29.78 in1008.5 mb 0.00 in0.0 mm 0.00 in0.0 mm 0.00 in0.0 mm
01:45 PM 84.2°F29.0°C 52.8°F11.6°C 34% 9.8 mph N15.8 kmh N 21.3 mph34.3 kmh 29.78 in1008.5 mb 0.00 in0.0 mm 0.00 in0.0 mm 0.00 in0.0 mm
01:40 PM 83.5°F28.6°C 53.0°F11.7°C 35% 13.6 mph N21.9 kmh N 19.7 mph31.7 kmh 29.78 in1008.5 mb 0.00 in0.0 mm 0.00 in0.0 mm 0.00 in0.0 mm
01:35 PM 82.9°F28.3°C 52.5°F11.4°C 35% 13.6 mph N21.9 kmh N 19.7 mph31.7 kmh 29.78 in1008.5 mb 0.00 in0.0 mm 0.00 in0.0 mm 0.00 in0.0 mm
01:30 PM 83.5°F28.6°C 54.5°F12.5°C 37% 12.1 mph NNW19.5 kmh NNW 18.3 mph29.5 kmh 29.78 in1008.5 mb 0.00 in0.0 mm 0.00 in0.0 mm 0.00 in0.0 mm
01:25 PM 83.5°F28.6°C 54.5°F12.5°C 37% 12.1 mph N19.5 kmh N 18.3 mph29.5 kmh 29.80 in1009.1 mb 0.00 in0.0 mm 0.00 in0.0 mm 0.00 in0.0 mm
01:20 PM 83.5°F28.6°C 54.5°F12.5°C 37% 10.7 mph N17.2 kmh N 16.8 mph27.0 kmh 29.79 in1008.8 mb 0.00 in0.0 mm 0.00 in0.0 mm 0.00 in0.0 mm
01:15 PM 83.5°F28.6°C 54.5°F12.5°C 37% 5.4 mph N8.7 kmh N 14.5 mph23.3 kmh 29.80 in1009.1 mb 0.00 in0.0 mm 0.00 in0.0 mm 0.00 in0.0 mm
01:10 PM 82.9°F28.3°C 54.0°F12.2°C 37% 6.9 mph N11.1 kmh N 14.5 mph23.3 kmh 29.79 in1008.8 mb 0.00 in0.0 mm 0.00 in0.0 mm 0.00 in0.0 mm
01:05 PM 82.9°F28.3°C 54.0°F12.2°C 37% 9.2 mph N14.8 kmh N 15.9 mph25.6 kmh 29.80 in1009.1 mb 0.00 in0.0 mm 0.00 in0.0 mm 0.00 in0.0 mm
01:00 PM 82.9°F28.3°C 54.0°F12.2°C 37% 11.4 mph N18.3 kmh N 15.9 mph25.6 kmh 29.80 in1009.1 mb 0.00 in0.0 mm 0.00 in0.0 mm 0.00 in0.0 mm
12:55 PM 81.9°F27.7°C 53.8°F12.1°C 38% 5.4 mph N8.7 kmh N 18.3 mph29.5 kmh 29.80 in1009.1 mb 0.00 in0.0 mm 0.00 in0.0 mm 0.00 in0.0 mm
12:50 PM 81.9°F27.7°C 53.8°F12.1°C 38% 11.4 mph N18.3 kmh N 18.3 mph29.5 kmh 29.80 in1009.1 mb 0.00 in0.0 mm 0.00 in0.0 mm 0.00 in0.0 mm
12:45 PM 81.9°F27.7°C 53.8°F12.1°C 38% 11.4 mph N18.3 kmh N 18.3 mph29.5 kmh 29.80 in1009.1 mb 0.00 in0.0 mm 0.00 in0.0 mm 0.00 in0.0 mm
12:40 PM 81.9°F27.7°C 53.8°F12.1°C 38% 7.6 mph NNW12.2 kmh NNW 18.3 mph29.5 kmh 29.80 in1009.1 mb 0.00 in0.0 mm 0.00 in0.0 mm 0.00 in0.0 mm
12:35 PM 81.5°F27.5°C 53.5°F11.9°C 38% 7.6 mph N12.2 kmh N 19.0 mph30.6 kmh 29.80 in1009.1 mb 0.00 in0.0 mm 0.00 in0.0 mm 0.00 in0.0 mm
12:30 PM 81.5°F27.5°C 52.8°F11.6°C 37% 9.2 mph N14.8 kmh N 19.0 mph30.6 kmh 29.81 in1009.5 mb 0.00 in0.0 mm 0.00 in0.0 mm 0.00 in0.0 mm
12:25 PM 82.0°F27.8°C 54.0°F12.2°C 38% 9.8 mph N15.8 kmh N 15.2 mph24.5 kmh 29.81 in1009.5 mb 0.00 in0.0 mm 0.00 in0.0 mm 0.00 in0.0 mm
12:20 PM 82.2°F27.9°C 54.1°F12.3°C 38% 6.9 mph N11.1 kmh N 16.8 mph27.0 kmh 29.80 in1009.1 mb 0.00 in0.0 mm 0.00 in0.0 mm 0.00 in0.0 mm
12:15 PM 81.7°F27.6°C 53.6°F12.0°C 38% 3.8 mph NNW6.1 kmh NNW 16.8 mph27.0 kmh 29.81 in1009.5 mb 0.00 in0.0 mm 0.00 in0.0 mm 0.00 in0.0 mm
12:10 PM 81.7°F27.6°C 52.9°F11.6°C 37% 9.2 mph NNW14.8 kmh NNW 14.5 mph23.3 kmh 29.81 in1009.5 mb 0.00 in0.0 mm 0.00 in0.0 mm 0.00 in0.0 mm
12:05 PM 82.0°F27.8°C 53.2°F11.8°C 37% 6.0 mph N9.7 kmh N 14.5 mph23.3 kmh 29.81 in1009.5 mb 0.00 in0.0 mm 0.00 in0.0 mm 0.00 in0.0 mm
12:00 PM 81.7°F27.6°C 53.6°F12.0°C 38% 11.4 mph N18.3 kmh N 19.0 mph30.6 kmh 29.81 in1009.5 mb 0.00 in0.0 mm 0.00 in0.0 mm 0.00 in0.0 mm
11:55 AM 81.0°F27.2°C 52.3°F11.3°C 37% 9.8 mph N15.8 kmh N 25.1 mph40.4 kmh 29.81 in1009.5 mb 0.00 in0.0 mm 0.00 in0.0 mm 0.00 in0.0 mm
11:50 AM 81.0°F27.2°C 52.3°F11.3°C 37% 13.0 mph N20.9 kmh N 25.1 mph40.4 kmh 29.82 in1009.8 mb 0.00 in0.0 mm 0.00 in0.0 mm 0.00 in0.0 mm
11:45 AM 81.1°F27.3°C 52.4°F11.3°C 37% 9.8 mph NNW15.8 kmh NNW 20.6 mph33.2 kmh 29.82 in1009.8 mb 0.00 in0.0 mm 0.00 in0.0 mm 0.00 in0.0 mm
11:40 AM 80.2°F26.8°C 53.8°F12.1°C 40% 11.4 mph NNW18.3 kmh NNW 20.6 mph33.2 kmh 29.82 in1009.8 mb 0.00 in0.0 mm 0.00 in0.0 mm 0.00 in0.0 mm
11:35 AM 80.2°F26.8°C 53.1°F11.7°C 39% 15.9 mph N25.6 kmh N 19.7 mph31.7 kmh 29.81 in1009.5 mb 0.00 in0.0 mm 0.00 in0.0 mm 0.00 in0.0 mm
11:30 AM 80.1°F26.7°C 53.6°F12.0°C 40% 12.1 mph N19.5 kmh N 18.3 mph29.5 kmh 29.82 in1009.8 mb 0.00 in0.0 mm 0.00 in0.0 mm 0.00 in0.0 mm
11:25 AM 80.1°F26.7°C 54.9°F12.7°C 42% 10.7 mph N17.2 kmh N 15.9 mph25.6 kmh 29.82 in1009.8 mb 0.00 in0.0 mm 0.00 in0.0 mm 0.00 in0.0 mm
11:20 AM 79.9°F26.6°C 55.4°F13.0°C 43% 6.9 mph N11.1 kmh N 15.2 mph24.5 kmh 29.82 in1009.8 mb 0.00 in0.0 mm 0.00 in0.0 mm 0.00 in0.0 mm
11:15 AM 79.2°F26.2°C 56.0°F13.3°C 45% 8.3 mph N13.4 kmh N 15.2 mph24.5 kmh 29.82 in1009.8 mb 0.00 in0.0 mm 0.00 in0.0 mm 0.00 in0.0 mm
11:10 AM 79.0°F26.1°C 57.7°F14.3°C 48% 10.7 mph N17.2 kmh N 15.2 mph24.5 kmh 29.83 in1010.2 mb 0.00 in0.0 mm 0.00 in0.0 mm 0.00 in0.0 mm
11:05 AM 78.6°F25.9°C 59.6°F15.3°C 52% 6.9 mph N11.1 kmh N 12.1 mph19.5 kmh 29.83 in1010.2 mb 0.00 in0.0 mm 0.00 in0.0 mm 0.00 in0.0 mm
11:00 AM 78.6°F25.9°C 59.0°F15.0°C 51% 7.6 mph NNE12.2 kmh NNE 12.1 mph19.5 kmh 29.83 in1010.2 mb 0.00 in0.0 mm 0.00 in0.0 mm 0.00 in0.0 mm
10:55 AM 79.0°F26.1°C 59.3°F15.2°C 51% 4.5 mph NNE7.2 kmh NNE 11.4 mph18.3 kmh 29.83 in1010.2 mb 0.00 in0.0 mm 0.00 in0.0 mm 0.00 in0.0 mm
10:50 AM 78.1°F25.6°C 59.6°F15.3°C 53% 3.8 mph N6.1 kmh N 11.4 mph18.3 kmh 29.84 in1010.5 mb 0.00 in0.0 mm 0.00 in0.0 mm 0.00 in0.0 mm
10:45 AM 77.2°F25.1°C 59.3°F15.2°C 54% 8.3 mph N13.4 kmh N 11.4 mph18.3 kmh 29.83 in1010.2 mb 0.00 in0.0 mm 0.00 in0.0 mm 0.00 in0.0 mm
10:40 AM 76.8°F24.9°C 60.0°F15.6°C 56% 6.0 mph N9.7 kmh N 9.8 mph15.8 kmh 29.84 in1010.5 mb 0.00 in0.0 mm 0.00 in0.0 mm 0.00 in0.0 mm
10:35 AM 75.6°F24.2°C 59.3°F15.2°C 57% 5.4 mph N8.7 kmh N 9.2 mph14.8 kmh 29.84 in1010.5 mb 0.00 in0.0 mm 0.00 in0.0 mm 0.00 in0.0 mm
10:30 AM 76.3°F24.6°C 60.0°F15.6°C 57% 5.4 mph N8.7 kmh N 8.3 mph13.4 kmh 29.84 in1010.5 mb 0.00 in0.0 mm 0.00 in0.0 mm 0.00 in0.0 mm
10:25 AM 75.4°F24.1°C 59.6°F15.3°C 58% 3.1 mph NNE5.0 kmh NNE 6.9 mph11.1 kmh 29.84 in1010.5 mb 0.00 in0.0 mm 0.00 in0.0 mm 0.00 in0.0 mm
10:20 AM 75.0°F23.9°C 60.2°F15.7°C 60% 3.1 mph NNE5.0 kmh NNE 7.6 mph12.2 kmh 29.85 in1010.8 mb 0.00 in0.0 mm 0.00 in0.0 mm 0.00 in0.0 mm
10:15 AM 74.7°F23.7°C 59.4°F15.2°C 59% 3.1 mph N5.0 kmh N 7.6 mph12.2 kmh 29.84 in1010.5 mb 0.00 in0.0 mm 0.00 in0.0 mm 0.00 in0.0 mm
10:10 AM 74.7°F23.7°C 59.4°F15.2°C 59% 6.0 mph N9.7 kmh N 8.3 mph13.4 kmh 29.85 in1010.8 mb 0.00 in0.0 mm 0.00 in0.0 mm 0.00 in0.0 mm
10:05 AM 74.1°F23.4°C 58.9°F14.9°C 59% 3.1 mph N5.0 kmh N 8.3 mph13.4 kmh 29.85 in1010.8 mb 0.00 in0.0 mm 0.00 in0.0 mm 0.00 in0.0 mm
10:00 AM 74.1°F23.4°C 58.9°F14.9°C 59% 5.4 mph NNE8.7 kmh NNE 8.3 mph13.4 kmh 29.85 in1010.8 mb 0.00 in0.0 mm 0.00 in0.0 mm 0.00 in0.0 mm
09:55 AM 74.1°F23.4°C 58.4°F14.7°C 58% 3.1 mph N5.0 kmh N 10.7 mph17.2 kmh 29.85 in1010.8 mb 0.00 in0.0 mm 0.00 in0.0 mm 0.00 in0.0 mm
09:50 AM 74.1°F23.4°C 58.9°F14.9°C 59% 3.1 mph N5.0 kmh N 10.7 mph17.2 kmh 29.84 in1010.5 mb 0.00 in0.0 mm 0.00 in0.0 mm 0.00 in0.0 mm
09:45 AM 74.1°F23.4°C 58.4°F14.7°C 58% 6.9 mph N11.1 kmh N 10.7 mph17.2 kmh 29.84 in1010.5 mb 0.00 in0.0 mm 0.00 in0.0 mm 0.00 in0.0 mm
09:40 AM 74.1°F23.4°C 58.4°F14.7°C 58% 4.5 mph N7.2 kmh N 10.7 mph17.2 kmh 29.85 in1010.8 mb 0.00 in0.0 mm 0.00 in0.0 mm 0.00 in0.0 mm
09:35 AM 74.1°F23.4°C 58.4°F14.7°C 58% 4.5 mph N7.2 kmh N 11.4 mph18.3 kmh 29.84 in1010.5 mb 0.00 in0.0 mm 0.00 in0.0 mm 0.00 in0.0 mm
09:30 AM 74.1°F23.4°C 58.4°F14.7°C 58% 4.5 mph N7.2 kmh N 11.4 mph18.3 kmh 29.84 in1010.5 mb 0.00 in0.0 mm 0.00 in0.0 mm 0.00 in0.0 mm
09:25 AM 74.1°F23.4°C 58.4°F14.7°C 58% 6.9 mph N11.1 kmh N 12.1 mph19.5 kmh 29.84 in1010.5 mb 0.00 in0.0 mm 0.00 in0.0 mm 0.00 in0.0 mm
09:20 AM 74.1°F23.4°C 57.9°F14.4°C 57% 7.6 mph N12.2 kmh N 12.1 mph19.5 kmh 29.84 in1010.5 mb 0.00 in0.0 mm 0.00 in0.0 mm 0.00 in0.0 mm
09:15 AM 74.1°F23.4°C 57.9°F14.4°C 57% 6.9 mph N11.1 kmh N 12.1 mph19.5 kmh 29.84 in1010.5 mb 0.00 in0.0 mm 0.00 in0.0 mm 0.00 in0.0 mm
09:10 AM 74.1°F23.4°C 57.9°F14.4°C 57% 4.5 mph NNE7.2 kmh NNE 12.1 mph19.5 kmh 29.84 in1010.5 mb 0.00 in0.0 mm 0.00 in0.0 mm 0.00 in0.0 mm
09:05 AM 74.1°F23.4°C 57.5°F14.2°C 56% 6.0 mph N9.7 kmh N 11.4 mph18.3 kmh 29.84 in1010.5 mb 0.00 in0.0 mm 0.00 in0.0 mm 0.00 in0.0 mm
09:00 AM 74.1°F23.4°C 57.9°F14.4°C 57% 2.2 mph N3.5 kmh N 11.4 mph18.3 kmh 29.83 in1010.2 mb 0.00 in0.0 mm 0.00 in0.0 mm 0.00 in0.0 mm
08:55 AM 74.1°F23.4°C 57.5°F14.2°C 56% 9.2 mph N14.8 kmh N 11.4 mph18.3 kmh 29.84 in1010.5 mb 0.00 in0.0 mm 0.00 in0.0 mm 0.00 in0.0 mm
08:50 AM 74.1°F23.4°C 57.5°F14.2°C 56% 1.6 mph N2.6 kmh N 13.0 mph20.9 kmh 29.84 in1010.5 mb 0.00 in0.0 mm 0.00 in0.0 mm 0.00 in0.0 mm
08:45 AM 74.1°F23.4°C 57.5°F14.2°C 56% 8.3 mph N13.4 kmh N 13.0 mph20.9 kmh 29.84 in1010.5 mb 0.00 in0.0 mm 0.00 in0.0 mm 0.00 in0.0 mm
08:40 AM 74.1°F23.4°C 57.0°F13.9°C 55% 9.2 mph N14.8 kmh N 15.2 mph24.5 kmh 29.84 in1010.5 mb 0.00 in0.0 mm 0.00 in0.0 mm 0.00 in0.0 mm
08:35 AM 74.1°F23.4°C 57.5°F14.2°C 56% 9.8 mph N15.8 kmh N 15.2 mph24.5 kmh 29.84 in1010.5 mb 0.00 in0.0 mm 0.00 in0.0 mm 0.00 in0.0 mm
08:30 AM 74.1°F23.4°C 57.9°F14.4°C 57% 6.9 mph N11.1 kmh N 14.5 mph23.3 kmh 29.83 in1010.2 mb 0.00 in0.0 mm 0.00 in0.0 mm 0.00 in0.0 mm
08:25 AM 74.1°F23.4°C 58.4°F14.7°C 58% 9.2 mph NNW14.8 kmh NNW 13.6 mph21.9 kmh 29.83 in1010.2 mb 0.00 in0.0 mm 0.00 in0.0 mm 0.00 in0.0 mm
08:20 AM 74.1°F23.4°C 58.4°F14.7°C 58% 9.2 mph N14.8 kmh N 13.6 mph21.9 kmh 29.83 in1010.2 mb 0.00 in0.0 mm 0.00 in0.0 mm 0.00 in0.0 mm
08:15 AM 72.7°F22.6°C 57.6°F14.2°C 59% 5.4 mph N8.7 kmh N 13.6 mph21.9 kmh 29.83 in1010.2 mb 0.00 in0.0 mm 0.00 in0.0 mm 0.00 in0.0 mm
08:10 AM 72.5°F22.5°C 57.4°F14.1°C 59% 6.0 mph N9.7 kmh N 11.4 mph18.3 kmh 29.84 in1010.5 mb 0.00 in0.0 mm 0.00 in0.0 mm 0.00 in0.0 mm
08:05 AM 72.5°F22.5°C 57.4°F14.1°C 59% 6.9 mph N11.1 kmh N 9.8 mph15.8 kmh 29.83 in1010.2 mb 0.00 in0.0 mm 0.00 in0.0 mm 0.00 in0.0 mm
08:00 AM 72.5°F22.5°C 57.4°F14.1°C 59% 5.4 mph N8.7 kmh N 9.8 mph15.8 kmh 29.83 in1010.2 mb 0.00 in0.0 mm 0.00 in0.0 mm 0.00 in0.0 mm
07:55 AM 72.5°F22.5°C 57.4°F14.1°C 59% 7.6 mph N12.2 kmh N 10.7 mph17.2 kmh 29.83 in1010.2 mb 0.00 in0.0 mm 0.00 in0.0 mm 0.00 in0.0 mm
07:50 AM 72.5°F22.5°C 57.4°F14.1°C 59% 6.0 mph N9.7 kmh N 11.4 mph18.3 kmh 29.83 in1010.2 mb 0.00 in0.0 mm 0.00 in0.0 mm 0.00 in0.0 mm
07:45 AM 72.5°F22.5°C 57.4°F14.1°C 59% 6.9 mph N11.1 kmh N 12.1 mph19.5 kmh 29.83 in1010.2 mb 0.00 in0.0 mm 0.00 in0.0 mm 0.00 in0.0 mm
07:40 AM 72.5°F22.5°C 56.9°F13.8°C 58% 5.4 mph N8.7 kmh N 12.1 mph19.5 kmh 29.82 in1009.8 mb 0.00 in0.0 mm 0.00 in0.0 mm 0.00 in0.0 mm
07:35 AM 72.5°F22.5°C 56.9°F13.8°C 58% 6.0 mph NNE9.7 kmh NNE 13.6 mph21.9 kmh 29.82 in1009.8 mb 0.00 in0.0 mm 0.00 in0.0 mm 0.00 in0.0 mm
07:30 AM 72.7°F22.6°C 57.1°F13.9°C 58% 6.0 mph NNE9.7 kmh NNE 14.5 mph23.3 kmh 29.81 in1009.5 mb 0.00 in0.0 mm 0.00 in0.0 mm 0.00 in0.0 mm
07:25 AM 72.7°F22.6°C 56.6°F13.7°C 57% 8.3 mph N13.4 kmh N 14.5 mph23.3 kmh 29.80 in1009.1 mb 0.00 in0.0 mm 0.00 in0.0 mm 0.00 in0.0 mm
07:20 AM 72.7°F22.6°C 56.6°F13.7°C 57% 8.3 mph N13.4 kmh N 20.6 mph33.2 kmh 29.81 in1009.5 mb 0.00 in0.0 mm 0.00 in0.0 mm 0.00 in0.0 mm
07:15 AM 72.7°F22.6°C 57.1°F13.9°C 58% 7.6 mph NNE12.2 kmh NNE 20.6 mph33.2 kmh 29.82 in1009.8 mb 0.00 in0.0 mm 0.00 in0.0 mm 0.00 in0.0 mm
07:10 AM 72.7°F22.6°C 56.6°F13.7°C 57% 12.1 mph NNE19.5 kmh NNE 20.6 mph33.2 kmh 29.81 in1009.5 mb 0.00 in0.0 mm 0.00 in0.0 mm 0.00 in0.0 mm
07:05 AM 72.7°F22.6°C 57.1°F13.9°C 58% 5.4 mph NNE8.7 kmh NNE 12.1 mph19.5 kmh 29.81 in1009.5 mb 0.00 in0.0 mm 0.00 in0.0 mm 0.00 in0.0 mm
07:00 AM 74.1°F23.4°C 58.4°F14.7°C 58% 6.0 mph NNE9.7 kmh NNE 13.0 mph20.9 kmh 29.82 in1009.8 mb 0.00 in0.0 mm 0.00 in0.0 mm 0.00 in0.0 mm
06:55 AM 72.7°F22.6°C 56.1°F13.4°C 56% 4.5 mph NNE7.2 kmh NNE 15.2 mph24.5 kmh 29.81 in1009.5 mb 0.00 in0.0 mm 0.00 in0.0 mm 0.00 in0.0 mm
06:50 AM 72.7°F22.6°C 55.6°F13.1°C 55% 6.9 mph N11.1 kmh N 15.2 mph24.5 kmh 29.81 in1009.5 mb 0.00 in0.0 mm 0.00 in0.0 mm 0.00 in0.0 mm
06:45 AM 72.7°F22.6°C 55.6°F13.1°C 55% 7.6 mph N12.2 kmh N 15.2 mph24.5 kmh 29.82 in1009.8 mb 0.00 in0.0 mm 0.00 in0.0 mm 0.00 in0.0 mm
06:40 AM 72.7°F22.6°C 55.6°F13.1°C 55% 5.4 mph N8.7 kmh N 14.5 mph23.3 kmh 29.81 in1009.5 mb 0.00 in0.0 mm 0.00 in0.0 mm 0.00 in0.0 mm
06:35 AM 72.5°F22.5°C 55.4°F13.0°C 55% 6.9 mph NNE11.1 kmh NNE 14.5 mph23.3 kmh 29.81 in1009.5 mb 0.00 in0.0 mm 0.00 in0.0 mm 0.00 in0.0 mm
06:30 AM 72.5°F22.5°C 55.4°F13.0°C 55% 9.8 mph NNE15.8 kmh NNE 14.5 mph23.3 kmh 29.80 in1009.1 mb 0.00 in0.0 mm 0.00 in0.0 mm 0.00 in0.0 mm
06:25 AM 72.5°F22.5°C 55.4°F13.0°C 55% 7.6 mph NNE12.2 kmh NNE 12.1 mph19.5 kmh 29.80 in1009.1 mb 0.00 in0.0 mm 0.00 in0.0 mm 0.00 in0.0 mm
06:20 AM 72.5°F22.5°C 55.4°F13.0°C 55% 4.5 mph N7.2 kmh N 11.4 mph18.3 kmh 29.81 in1009.5 mb 0.00 in0.0 mm 0.00 in0.0 mm 0.00 in0.0 mm
06:15 AM 72.5°F22.5°C 55.4°F13.0°C 55% 5.4 mph N8.7 kmh N 11.4 mph18.3 kmh 29.80 in1009.1 mb 0.00 in0.0 mm 0.00 in0.0 mm 0.00 in0.0 mm
06:10 AM 72.5°F22.5°C 55.9°F13.3°C 56% 5.4 mph N8.7 kmh N 12.1 mph19.5 kmh 29.80 in1009.1 mb 0.00 in0.0 mm 0.00 in0.0 mm 0.00 in0.0 mm
06:05 AM 72.5°F22.5°C 55.9°F13.3°C 56% 4.5 mph N7.2 kmh N 12.1 mph19.5 kmh 29.80 in1009.1 mb 0.00 in0.0 mm 0.00 in0.0 mm 0.00 in0.0 mm
06:00 AM 72.3°F22.4°C 55.8°F13.2°C 56% 6.0 mph N9.7 kmh N 10.7 mph17.2 kmh 29.80 in1009.1 mb 0.00 in0.0 mm 0.00 in0.0 mm 0.00 in0.0 mm
05:55 AM 72.1°F22.3°C 55.6°F13.1°C 56% 3.8 mph N6.1 kmh N 10.7 mph17.2 kmh 29.80 in1009.1 mb 0.00 in0.0 mm 0.00 in0.0 mm 0.00 in0.0 mm
05:50 AM 72.1°F22.3°C 55.6°F13.1°C 56% 6.0 mph N9.7 kmh N 11.4 mph18.3 kmh 29.80 in1009.1 mb 0.00 in0.0 mm 0.00 in0.0 mm 0.00 in0.0 mm
05:45 AM 72.0°F22.2°C 55.4°F13.0°C 56% 7.6 mph N12.2 kmh N 11.4 mph18.3 kmh 29.79 in1008.8 mb 0.00 in0.0 mm 0.00 in0.0 mm 0.00 in0.0 mm
05:40 AM 72.0°F22.2°C 55.4°F13.0°C 56% 5.4 mph N8.7 kmh N 13.0 mph20.9 kmh 29.79 in1008.8 mb 0.00 in0.0 mm 0.00 in0.0 mm 0.00 in0.0 mm
05:35 AM 71.8°F22.1°C 55.3°F12.9°C 56% 7.6 mph N12.2 kmh N 13.6 mph21.9 kmh 29.79 in1008.8 mb 0.00 in0.0 mm 0.00 in0.0 mm 0.00 in0.0 mm
05:30 AM 71.6°F22.0°C 55.1°F12.8°C 56% 5.4 mph N8.7 kmh N 13.6 mph21.9 kmh 29.79 in1008.8 mb 0.00 in0.0 mm 0.00 in0.0 mm 0.00 in0.0 mm
05:25 AM 71.6°F22.0°C 54.6°F12.6°C 55% 5.4 mph N8.7 kmh N 13.6 mph21.9 kmh 29.79 in1008.8 mb 0.00 in0.0 mm 0.00 in0.0 mm 0.00 in0.0 mm
05:20 AM 71.6°F22.0°C 54.6°F12.6°C 55% 3.1 mph N5.0 kmh N 13.6 mph21.9 kmh 29.79 in1008.8 mb 0.00 in0.0 mm 0.00 in0.0 mm 0.00 in0.0 mm
05:15 AM 71.4°F21.9°C 54.9°F12.7°C 56% 8.3 mph N13.4 kmh N 14.5 mph23.3 kmh 29.79 in1008.8 mb 0.00 in0.0 mm 0.00 in0.0 mm 0.00 in0.0 mm
05:10 AM 71.2°F21.8°C 54.8°F12.7°C 56% 6.9 mph N11.1 kmh N 14.5 mph23.3 kmh 29.78 in1008.5 mb 0.00 in0.0 mm 0.00 in0.0 mm 0.00 in0.0 mm
05:05 AM 71.1°F21.7°C 54.6°F12.6°C 56% 6.9 mph N11.1 kmh N 10.7 mph17.2 kmh 29.78 in1008.5 mb 0.00 in0.0 mm 0.00 in0.0 mm 0.00 in0.0 mm
05:00 AM 71.1°F21.7°C 55.1°F12.8°C 57% 8.3 mph NNW13.4 kmh NNW 12.1 mph19.5 kmh 29.78 in1008.5 mb 0.00 in0.0 mm 0.00 in0.0 mm 0.00 in0.0 mm
04:55 AM 71.1°F21.7°C 55.1°F12.8°C 57% 4.5 mph NNW7.2 kmh NNW 13.6 mph21.9 kmh 29.78 in1008.5 mb 0.00 in0.0 mm 0.00 in0.0 mm 0.00 in0.0 mm
04:50 AM 70.9°F21.6°C 54.9°F12.7°C 57% 7.6 mph N12.2 kmh N 14.5 mph23.3 kmh 29.78 in1008.5 mb 0.00 in0.0 mm 0.00 in0.0 mm 0.00 in0.0 mm
04:45 AM 70.9°F21.6°C 54.9°F12.7°C 57% 4.5 mph N7.2 kmh N 14.5 mph23.3 kmh 29.78 in1008.5 mb 0.00 in0.0 mm 0.00 in0.0 mm 0.00 in0.0 mm
04:40 AM 70.9°F21.6°C 54.9°F12.7°C 57% 4.5 mph N7.2 kmh N 13.6 mph21.9 kmh 29.77 in1008.1 mb 0.00 in0.0 mm 0.00 in0.0 mm 0.00 in0.0 mm
04:35 AM 70.9°F21.6°C 55.4°F13.0°C 58% 9.2 mph N14.8 kmh N 13.6 mph21.9 kmh 29.77 in1008.1 mb 0.00 in0.0 mm 0.00 in0.0 mm 0.00 in0.0 mm
04:30 AM 70.9°F21.6°C 55.4°F13.0°C 58% 7.6 mph N12.2 kmh N 13.0 mph20.9 kmh 29.77 in1008.1 mb 0.00 in0.0 mm 0.00 in0.0 mm 0.00 in0.0 mm
04:25 AM 71.1°F21.7°C 55.1°F12.8°C 57% 5.4 mph N8.7 kmh N 10.7 mph17.2 kmh 29.78 in1008.5 mb 0.00 in0.0 mm 0.00 in0.0 mm 0.00 in0.0 mm
04:20 AM 71.1°F21.7°C 55.1°F12.8°C 57% 6.0 mph N9.7 kmh N 13.6 mph21.9 kmh 29.78 in1008.5 mb 0.00 in0.0 mm 0.00 in0.0 mm 0.00 in0.0 mm
04:15 AM 71.1°F21.7°C 54.6°F12.6°C 56% 6.9 mph N11.1 kmh N 13.6 mph21.9 kmh 29.78 in1008.5 mb 0.00 in0.0 mm 0.00 in0.0 mm 0.00 in0.0 mm
04:10 AM 71.1°F21.7°C 54.6°F12.6°C 56% 8.3 mph N13.4 kmh N 13.0 mph20.9 kmh 29.78 in1008.5 mb 0.00 in0.0 mm 0.00 in0.0 mm 0.00 in0.0 mm
04:05 AM 71.1°F21.7°C 55.1°F12.8°C 57% 4.5 mph N7.2 kmh N 14.5 mph23.3 kmh 29.78 in1008.5 mb 0.00 in0.0 mm 0.00 in0.0 mm 0.00 in0.0 mm
04:00 AM 71.1°F21.7°C 55.1°F12.8°C 57% 5.4 mph N8.7 kmh N 14.5 mph23.3 kmh 29.77 in1008.1 mb 0.00 in0.0 mm 0.00 in0.0 mm 0.00 in0.0 mm
03:55 AM 71.2°F21.8°C 55.3°F12.9°C 57% 6.9 mph N11.1 kmh N 14.5 mph23.3 kmh 29.77 in1008.1 mb 0.00 in0.0 mm 0.00 in0.0 mm 0.00 in0.0 mm
03:50 AM 71.2°F21.8°C 55.3°F12.9°C 57% 9.8 mph NNE15.8 kmh NNE 14.5 mph23.3 kmh 29.76 in1007.8 mb 0.00 in0.0 mm 0.00 in0.0 mm 0.00 in0.0 mm
03:45 AM 71.1°F21.7°C 55.6°F13.1°C 58% 5.4 mph N8.7 kmh N 14.5 mph23.3 kmh 29.76 in1007.8 mb 0.00 in0.0 mm 0.00 in0.0 mm 0.00 in0.0 mm
03:40 AM 71.1°F21.7°C 55.1°F12.8°C 57% 6.9 mph N11.1 kmh N 14.5 mph23.3 kmh 29.76 in1007.8 mb 0.00 in0.0 mm 0.00 in0.0 mm 0.00 in0.0 mm
03:35 AM 71.1°F21.7°C 55.6°F13.1°C 58% 8.3 mph N13.4 kmh N 12.1 mph19.5 kmh 29.76 in1007.8 mb 0.00 in0.0 mm 0.00 in0.0 mm 0.00 in0.0 mm
03:30 AM 71.1°F21.7°C 56.0°F13.3°C 59% 7.6 mph NNE12.2 kmh NNE 15.2 mph24.5 kmh 29.75 in1007.5 mb 0.00 in0.0 mm 0.00 in0.0 mm 0.00 in0.0 mm
03:25 AM 71.1°F21.7°C 56.0°F13.3°C 59% 7.6 mph N12.2 kmh N 15.2 mph24.5 kmh 29.76 in1007.8 mb 0.00 in0.0 mm 0.00 in0.0 mm 0.00 in0.0 mm
03:20 AM 71.1°F21.7°C 56.0°F13.3°C 59% 6.9 mph N11.1 kmh N 13.6 mph21.9 kmh 29.76 in1007.8 mb 0.00 in0.0 mm 0.00 in0.0 mm 0.00 in0.0 mm
03:15 AM 71.2°F21.8°C 56.2°F13.4°C 59% 6.0 mph N9.7 kmh N 13.6 mph21.9 kmh 29.75 in1007.5 mb 0.00 in0.0 mm 0.00 in0.0 mm 0.00 in0.0 mm
03:10 AM 71.4°F21.9°C 56.4°F13.6°C 59% 8.3 mph N13.4 kmh N 13.6 mph21.9 kmh 29.75 in1007.5 mb 0.00 in0.0 mm 0.00 in0.0 mm 0.00 in0.0 mm
03:05 AM 71.4°F21.9°C 55.9°F13.3°C 58% 7.6 mph N12.2 kmh N 13.0 mph20.9 kmh 29.75 in1007.5 mb 0.00 in0.0 mm 0.00 in0.0 mm 0.00 in0.0 mm
03:00 AM 71.6°F22.0°C 53.6°F12.0°C 53% 5.4 mph N8.7 kmh N 14.5 mph23.3 kmh 29.75 in1007.5 mb 0.00 in0.0 mm 0.00 in0.0 mm 0.00 in0.0 mm
02:55 AM 71.6°F22.0°C 53.1°F11.7°C 52% 6.0 mph NNE9.7 kmh NNE 15.9 mph25.6 kmh 29.76 in1007.8 mb 0.00 in0.0 mm 0.00 in0.0 mm 0.00 in0.0 mm
02:50 AM 71.6°F22.0°C 53.1°F11.7°C 52% 10.7 mph NNE17.2 kmh NNE 15.9 mph25.6 kmh 29.76 in1007.8 mb 0.00 in0.0 mm 0.00 in0.0 mm 0.00 in0.0 mm
02:45 AM 71.4°F21.9°C 53.4°F11.9°C 53% 8.3 mph N13.4 kmh N 13.6 mph21.9 kmh 29.76 in1007.8 mb 0.00 in0.0 mm 0.00 in0.0 mm 0.00 in0.0 mm
02:40 AM 71.1°F21.7°C 53.1°F11.7°C 53% 7.6 mph N12.2 kmh N 15.2 mph24.5 kmh 29.76 in1007.8 mb 0.00 in0.0 mm 0.00 in0.0 mm 0.00 in0.0 mm
02:35 AM 71.1°F21.7°C 53.1°F11.7°C 53% 5.4 mph N8.7 kmh N 15.9 mph25.6 kmh 29.77 in1008.1 mb 0.00 in0.0 mm 0.00 in0.0 mm 0.00 in0.0 mm
02:30 AM 70.9°F21.6°C 52.9°F11.6°C 53% 9.2 mph N14.8 kmh N 15.9 mph25.6 kmh 29.76 in1007.8 mb 0.00 in0.0 mm 0.00 in0.0 mm 0.00 in0.0 mm
02:25 AM 70.9°F21.6°C 52.9°F11.6°C 53% 9.2 mph NNE14.8 kmh NNE 15.9 mph25.6 kmh 29.75 in1007.5 mb 0.00 in0.0 mm 0.00 in0.0 mm 0.00 in0.0 mm
02:20 AM 70.7°F21.5°C 53.3°F11.8°C 54% 7.6 mph NNE12.2 kmh NNE 15.9 mph25.6 kmh 29.76 in1007.8 mb 0.00 in0.0 mm 0.00 in0.0 mm 0.00 in0.0 mm
02:15 AM 70.7°F21.5°C 53.3°F11.8°C 54% 7.6 mph N12.2 kmh N 13.6 mph21.9 kmh 29.77 in1008.1 mb 0.00 in0.0 mm 0.00 in0.0 mm 0.00 in0.0 mm
02:10 AM 70.7°F21.5°C 53.3°F11.8°C 54% 6.9 mph N11.1 kmh N 13.0 mph20.9 kmh 29.77 in1008.1 mb 0.00 in0.0 mm 0.00 in0.0 mm 0.00 in0.0 mm
02:05 AM 70.7°F21.5°C 53.3°F11.8°C 54% 5.4 mph N8.7 kmh N 13.6 mph21.9 kmh 29.78 in1008.5 mb 0.00 in0.0 mm 0.00 in0.0 mm 0.00 in0.0 mm
02:00 AM 70.7°F21.5°C 53.3°F11.8°C 54% 9.8 mph N15.8 kmh N 14.5 mph23.3 kmh 29.78 in1008.5 mb 0.00 in0.0 mm 0.00 in0.0 mm 0.00 in0.0 mm
01:55 AM 70.7°F21.5°C 53.3°F11.8°C 54% 9.2 mph N14.8 kmh N 15.2 mph24.5 kmh 29.78 in1008.5 mb 0.00 in0.0 mm 0.00 in0.0 mm 0.00 in0.0 mm
01:50 AM 70.7°F21.5°C 53.3°F11.8°C 54% 6.0 mph N9.7 kmh N 15.2 mph24.5 kmh 29.77 in1008.1 mb 0.00 in0.0 mm 0.00 in0.0 mm 0.00 in0.0 mm
01:45 AM 70.7°F21.5°C 53.3°F11.8°C 54% 8.3 mph N13.4 kmh N 14.5 mph23.3 kmh 29.78 in1008.5 mb 0.00 in0.0 mm 0.00 in0.0 mm 0.00 in0.0 mm
01:40 AM 70.7°F21.5°C 53.3°F11.8°C 54% 9.8 mph N15.8 kmh N 17.4 mph28.0 kmh 29.78 in1008.5 mb 0.00 in0.0 mm 0.00 in0.0 mm 0.00 in0.0 mm
01:35 AM 70.7°F21.5°C 53.3°F11.8°C 54% 6.0 mph N9.7 kmh N 17.4 mph28.0 kmh 29.77 in1008.1 mb 0.00 in0.0 mm 0.00 in0.0 mm 0.00 in0.0 mm
01:30 AM 70.7°F21.5°C 53.3°F11.8°C 54% 9.8 mph N15.8 kmh N 16.8 mph27.0 kmh 29.77 in1008.1 mb 0.00 in0.0 mm 0.00 in0.0 mm 0.00 in0.0 mm
01:25 AM 70.7°F21.5°C 53.3°F11.8°C 54% 8.3 mph N13.4 kmh N 19.7 mph31.7 kmh 29.77 in1008.1 mb 0.00 in0.0 mm 0.00 in0.0 mm 0.00 in0.0 mm
01:20 AM 70.7°F21.5°C 53.3°F11.8°C 54% 9.2 mph N14.8 kmh N 19.7 mph31.7 kmh 29.78 in1008.5 mb 0.00 in0.0 mm 0.00 in0.0 mm 0.00 in0.0 mm
01:15 AM 70.5°F21.4°C 53.1°F11.7°C 54% 8.3 mph N13.4 kmh N 16.8 mph27.0 kmh 29.77 in1008.1 mb 0.00 in0.0 mm 0.00 in0.0 mm 0.00 in0.0 mm
01:10 AM 70.5°F21.4°C 53.1°F11.7°C 54% 12.1 mph N19.5 kmh N 16.8 mph27.0 kmh 29.78 in1008.5 mb 0.00 in0.0 mm 0.00 in0.0 mm 0.00 in0.0 mm
01:05 AM 70.5°F21.4°C 53.1°F11.7°C 54% 9.2 mph N14.8 kmh N 15.9 mph25.6 kmh 29.78 in1008.5 mb 0.00 in0.0 mm 0.00 in0.0 mm 0.00 in0.0 mm
01:00 AM 70.7°F21.5°C 53.3°F11.8°C 54% 9.2 mph N14.8 kmh N 16.8 mph27.0 kmh 29.78 in1008.5 mb 0.00 in0.0 mm 0.00 in0.0 mm 0.00 in0.0 mm
12:55 AM 70.9°F21.6°C 52.9°F11.6°C 53% 9.8 mph N15.8 kmh N 16.8 mph27.0 kmh 29.78 in1008.5 mb 0.00 in0.0 mm 0.00 in0.0 mm 0.00 in0.0 mm
12:50 AM 71.1°F21.7°C 53.6°F12.0°C 54% 7.6 mph N12.2 kmh N 14.5 mph23.3 kmh 29.77 in1008.1 mb 0.00 in0.0 mm 0.00 in0.0 mm 0.00 in0.0 mm
12:45 AM 70.9°F21.6°C 53.4°F11.9°C 54% 9.2 mph N14.8 kmh N 16.8 mph27.0 kmh 29.77 in1008.1 mb 0.00 in0.0 mm 0.00 in0.0 mm 0.00 in0.0 mm
12:40 AM 70.7°F21.5°C 53.8°F12.1°C 55% 7.6 mph N12.2 kmh N 16.8 mph27.0 kmh 29.78 in1008.5 mb 0.00 in0.0 mm 0.00 in0.0 mm 0.00 in0.0 mm
12:35 AM 70.7°F21.5°C 53.8°F12.1°C 55% 8.3 mph N13.4 kmh N 14.5 mph23.3 kmh 29.78 in1008.5 mb 0.00 in0.0 mm 0.00 in0.0 mm 0.00 in0.0 mm
12:30 AM 70.9°F21.6°C 53.9°F12.2°C 55% 7.6 mph N12.2 kmh N 15.2 mph24.5 kmh 29.78 in1008.5 mb 0.00 in0.0 mm 0.00 in0.0 mm 0.00 in0.0 mm
12:25 AM 70.9°F21.6°C 53.9°F12.2°C 55% 9.2 mph N14.8 kmh N 16.8 mph27.0 kmh 29.79 in1008.8 mb 0.00 in0.0 mm 0.00 in0.0 mm 0.00 in0.0 mm
12:20 AM 70.9°F21.6°C 53.9°F12.2°C 55% 9.8 mph N15.8 kmh N 16.8 mph27.0 kmh 29.79 in1008.8 mb 0.00 in0.0 mm 0.00 in0.0 mm 0.00 in0.0 mm
12:15 AM 71.2°F21.8°C 54.3°F12.4°C 55% 6.9 mph N11.1 kmh N 14.5 mph23.3 kmh 29.79 in1008.8 mb 0.00 in0.0 mm 0.00 in0.0 mm 0.00 in0.0 mm
12:10 AM 71.2°F21.8°C 54.3°F12.4°C 55% 8.3 mph N13.4 kmh N 15.2 mph24.5 kmh 29.79 in1008.8 mb 0.00 in0.0 mm 0.00 in0.0 mm 0.00 in0.0 mm
12:05 AM 71.4°F21.9°C 54.4°F12.4°C 55% 9.2 mph N14.8 kmh N 15.2 mph24.5 kmh 29.80 in1009.1 mb 0.00 in0.0 mm 0.00 in0.0 mm 0.00 in0.0 mm
12:00 AM 71.6°F22.0°C 53.6°F12.0°C 53% 9.8 mph N15.8 kmh N 15.9 mph25.6 kmh 29.80 in1009.1 mb 0.00 in0.0 mm 0.00 in0.0 mm 0.00 in0.0 mm